Terminal Aerodrome Forecast
Issued by NWS

Home | Current Version | Previous Version | Text Only | Print | Product List | Glossary On
Versions: 1 2 3 4 5 6 7 8 9 10 11 12 13
000
FTUS41 KLWX 311126
TAFMTN
TAF
KMTN 311126Z 3112/0112 24004KT P6SM BKN090
     FM010000 21005KT P6SM SCT120
     FM011100 00000KT P6SM FEW250=

USA.gov is the U.S. government's official web portal to all federal, state and local government web resources and services.